createdAt,value
2022-11-06T00:00:33.949Z,21.90
2022-11-06T00:01:34.015Z,21.20
2022-11-06T00:02:33.995Z,41.30
2022-11-06T00:03:33.916Z,40.20
2022-11-06T00:04:33.912Z,29.80
2022-11-06T00:05:33.906Z,45.50
2022-11-06T00:06:33.890Z,77.10
2022-11-06T00:07:33.893Z,36.00
2022-11-06T00:08:33.880Z,39.90
2022-11-06T00:09:33.839Z,50.10
2022-11-06T00:10:33.837Z,38.40
2022-11-06T00:11:33.844Z,18.40
2022-11-06T00:12:33.825Z,22.40
2022-11-06T00:13:33.859Z,26.60
2022-11-06T00:14:33.806Z,21.10
2022-11-06T00:15:33.778Z,33.70
2022-11-06T00:16:33.776Z,28.60
2022-11-06T00:17:33.781Z,40.30
2022-11-06T00:18:33.741Z,33.40
2022-11-06T00:19:33.741Z,37.30
2022-11-06T00:20:33.719Z,31.20
2022-11-06T00:21:33.721Z,25.30
2022-11-06T00:22:33.772Z,24.10
2022-11-06T00:23:33.702Z,18.70
2022-11-06T00:24:33.675Z,14.20
2022-11-06T00:25:33.669Z,15.00
2022-11-06T00:26:33.651Z,14.40
2022-11-06T00:27:33.679Z,13.30
2022-11-06T00:28:33.654Z,12.40
2022-11-06T00:29:33.638Z,12.70
2022-11-06T00:30:33.612Z,11.80
2022-11-06T00:31:33.612Z,16.30
2022-11-06T00:32:33.618Z,13.20
2022-11-06T00:33:33.598Z,29.00
2022-11-06T00:34:33.581Z,24.90
2022-11-06T00:35:33.553Z,41.10
2022-11-06T00:36:33.549Z,40.60
2022-11-06T00:37:33.535Z,34.70
2022-11-06T00:38:33.560Z,33.40
2022-11-06T00:39:33.536Z,37.10
2022-11-06T00:40:33.532Z,48.10
2022-11-06T00:41:33.488Z,40.00
2022-11-06T00:42:33.487Z,42.00
2022-11-06T00:43:33.466Z,42.20
2022-11-06T00:44:33.458Z,38.20
2022-11-06T00:45:33.464Z,51.50
2022-11-06T00:46:33.461Z,43.40
2022-11-06T00:47:33.468Z,33.20
2022-11-06T00:48:33.404Z,45.40
2022-11-06T00:49:33.413Z,46.20
2022-11-06T00:50:33.396Z,56.30
2022-11-06T00:51:33.396Z,40.80
2022-11-06T00:52:33.360Z,41.20
2022-11-06T00:53:33.367Z,34.00
2022-11-06T00:54:33.361Z,37.50
2022-11-06T00:55:33.345Z,52.50
2022-11-06T00:56:33.336Z,28.10
2022-11-06T00:57:33.329Z,91.80
2022-11-06T00:58:33.328Z,42.30
2022-11-06T00:59:33.306Z,134.10
2022-11-06T01:00:33.271Z,38.50
2022-11-06T01:01:33.468Z,36.00
2022-11-06T01:02:33.576Z,39.10
2022-11-06T01:03:33.238Z,71.20
2022-11-06T01:04:33.224Z,146.90
2022-11-06T01:05:33.213Z,94.10
2022-11-06T01:06:33.211Z,97.50
2022-11-06T01:07:33.226Z,118.80
2022-11-06T01:08:33.199Z,92.50
2022-11-06T01:09:33.196Z,57.40
2022-11-06T01:10:33.174Z,86.60
2022-11-06T01:11:52.519Z,66.10
2022-11-06T01:12:34.220Z,30.40
2022-11-06T01:13:33.234Z,138.40
2022-11-06T01:14:33.133Z,78.10
2022-11-06T01:15:33.136Z,159.60
2022-11-06T01:16:33.116Z,84.80
2022-11-06T01:17:33.108Z,72.30
2022-11-06T01:18:33.077Z,124.40
2022-11-06T01:19:33.087Z,34.00
2022-11-06T01:20:33.064Z,91.20
2022-11-06T01:21:33.046Z,32.30
2022-11-06T01:22:33.050Z,65.80
2022-11-06T01:23:33.350Z,96.20
2022-11-06T01:24:33.087Z,42.40
2022-11-06T01:25:33.002Z,159.70
2022-11-06T01:26:39.319Z,50.10
2022-11-06T01:27:34.011Z,41.10
2022-11-06T01:28:32.990Z,62.50
2022-11-06T01:29:32.981Z,38.80
2022-11-06T01:30:32.956Z,36.80
2022-11-06T01:31:32.958Z,31.40
2022-11-06T01:32:32.916Z,38.20
2022-11-06T01:33:32.966Z,57.20
2022-11-06T01:34:32.929Z,75.60
2022-11-06T01:35:32.888Z,40.00
2022-11-06T01:36:32.899Z,49.60
2022-11-06T01:37:32.902Z,37.50
2022-11-06T01:38:32.853Z,41.70
2022-11-06T01:39:32.848Z,36.20
2022-11-06T01:40:32.831Z,40.80
2022-11-06T01:41:32.827Z,36.40
2022-11-06T01:42:32.945Z,34.20
2022-11-06T01:43:32.788Z,34.00
2022-11-06T01:44:32.795Z,38.70
2022-11-06T01:45:32.780Z,49.30
2022-11-06T01:46:32.771Z,22.70
2022-11-06T01:47:32.757Z,26.10
2022-11-06T01:48:32.762Z,72.90
2022-11-06T01:49:32.735Z,74.70
2022-11-06T01:50:32.711Z,20.40
2022-11-06T01:51:32.700Z,39.50
2022-11-06T01:52:32.717Z,222.70
2022-11-06T01:53:32.693Z,140.40
2022-11-06T01:54:32.688Z,169.00
2022-11-06T01:55:32.674Z,146.80
2022-11-06T01:56:32.664Z,86.90
2022-11-06T01:57:32.639Z,89.80
2022-11-06T01:58:32.644Z,180.30
2022-11-06T01:59:32.634Z,191.10
2022-11-06T02:00:32.703Z,170.10
2022-11-06T02:01:32.739Z,183.10
2022-11-06T02:02:32.774Z,270.20
2022-11-06T02:03:32.589Z,39.50
2022-11-06T02:04:32.575Z,93.50
2022-11-06T02:05:32.597Z,105.40
2022-11-06T02:06:32.581Z,112.70
2022-11-06T02:07:32.525Z,40.70
2022-11-06T02:08:32.522Z,32.70
2022-11-06T02:09:32.538Z,83.80
2022-11-06T02:10:32.508Z,164.20
2022-11-06T02:11:32.508Z,38.60
2022-11-06T02:12:32.473Z,42.50
2022-11-06T02:13:32.452Z,172.40
2022-11-06T02:14:32.468Z,95.20
2022-11-06T02:15:32.454Z,140.40
2022-11-06T02:16:32.443Z,187.70
2022-11-06T02:17:32.411Z,237.60
2022-11-06T02:18:32.417Z,266.60
2022-11-06T02:19:32.386Z,112.00
2022-11-06T02:20:32.398Z,155.30
2022-11-06T02:21:32.372Z,153.10
2022-11-06T02:22:32.378Z,82.90
2022-11-06T02:23:32.346Z,38.80
2022-11-06T02:24:32.350Z,69.50
2022-11-06T02:25:32.365Z,170.90
2022-11-06T02:26:32.311Z,342.30
2022-11-06T02:27:32.311Z,278.30
2022-11-06T02:28:32.321Z,234.10
2022-11-06T02:29:50.512Z,295.90
2022-11-06T02:30:33.310Z,208.60
2022-11-06T02:31:32.283Z,242.00
2022-11-06T02:32:32.256Z,236.90
2022-11-06T02:33:32.242Z,195.00
2022-11-06T02:34:32.220Z,152.00
2022-11-06T02:35:32.224Z,216.30
2022-11-06T02:36:32.194Z,207.90
2022-11-06T02:37:32.206Z,77.10
2022-11-06T02:38:32.197Z,210.40
2022-11-06T02:39:32.179Z,156.90
2022-11-06T02:40:32.195Z,147.50
2022-11-06T02:41:32.139Z,60.10
2022-11-06T02:42:32.130Z,257.20
2022-11-06T02:43:32.161Z,66.10
2022-11-06T02:44:32.134Z,53.50
2022-11-06T02:45:32.246Z,79.20
2022-11-06T02:46:32.081Z,150.10
2022-11-06T02:47:32.072Z,71.90
2022-11-06T02:48:32.099Z,81.30
2022-11-06T02:49:32.065Z,56.50
2022-11-06T02:50:32.072Z,60.80
2022-11-06T02:51:32.048Z,112.40
2022-11-06T02:52:32.013Z,61.90
2022-11-06T02:53:32.018Z,132.10
2022-11-06T02:54:32.020Z,173.80
2022-11-06T02:55:32.020Z,94.60
2022-11-06T02:56:31.994Z,65.10
2022-11-06T02:57:31.961Z,155.30
2022-11-06T02:58:31.947Z,134.20
2022-11-06T02:59:31.959Z,108.20
2022-11-06T03:00:31.970Z,72.30
2022-11-06T03:01:32.144Z,42.10
2022-11-06T03:02:32.116Z,42.00
2022-11-06T03:03:31.893Z,35.20
2022-11-06T03:04:31.880Z,91.90
2022-11-06T03:05:31.886Z,92.20
2022-11-06T03:06:31.903Z,161.90
2022-11-06T03:07:31.882Z,172.90
2022-11-06T03:08:31.840Z,87.80
2022-11-06T03:09:31.827Z,62.50
2022-11-06T03:10:31.810Z,53.00
2022-11-06T03:11:31.850Z,48.30
2022-11-06T03:12:31.803Z,118.00
2022-11-06T03:13:31.805Z,68.50
2022-11-06T03:14:31.769Z,65.30
2022-11-06T03:15:31.773Z,112.00
2022-11-06T03:16:31.747Z,86.70
2022-11-06T03:17:32.365Z,49.80
2022-11-06T03:18:31.752Z,44.70
2022-11-06T03:19:31.713Z,123.60
2022-11-06T03:20:31.699Z,208.30
2022-11-06T03:21:31.689Z,112.10
2022-11-06T03:22:31.685Z,186.30
2022-11-06T03:23:31.702Z,137.20
2022-11-06T03:24:31.666Z,115.90
2022-11-06T03:25:31.676Z,48.60
2022-11-06T03:26:31.634Z,65.90
2022-11-06T03:27:31.625Z,64.40
2022-11-06T03:28:31.635Z,59.60
2022-11-06T03:29:31.635Z,72.20
2022-11-06T03:30:31.608Z,78.80
2022-11-06T03:31:31.580Z,70.60
2022-11-06T03:32:31.587Z,77.10
2022-11-06T03:33:31.893Z,56.70
2022-11-06T03:34:31.581Z,65.40
2022-11-06T03:35:31.551Z,55.10
2022-11-06T03:36:31.533Z,72.10
2022-11-06T03:37:31.513Z,70.60
2022-11-06T03:38:31.500Z,82.60
2022-11-06T03:39:31.535Z,70.40
2022-11-06T03:40:31.505Z,80.80
2022-11-06T03:41:31.490Z,68.70
2022-11-06T03:43:46.233Z,101.90
2022-11-06T03:44:46.176Z,70.90
2022-11-06T03:45:46.180Z,59.70
2022-11-06T03:46:46.187Z,72.60
2022-11-06T03:47:46.164Z,66.00
2022-11-06T03:48:46.194Z,71.50
2022-11-06T03:49:46.129Z,56.80
2022-11-06T03:50:46.408Z,53.40
2022-11-06T03:51:46.107Z,61.60
2022-11-06T03:52:46.117Z,67.60
2022-11-06T03:53:46.118Z,64.70
2022-11-06T03:54:46.071Z,79.80
2022-11-06T03:55:46.058Z,73.20
2022-11-06T03:56:46.383Z,79.20
2022-11-06T03:57:46.045Z,66.50
2022-11-06T03:58:46.096Z,65.70
2022-11-06T03:59:46.034Z,79.20
2022-11-06T04:00:46.000Z,82.90
2022-11-06T04:01:46.201Z,71.00
2022-11-06T04:02:46.174Z,68.00
2022-11-06T04:03:45.999Z,68.60
2022-11-06T04:04:46.006Z,91.60
2022-11-06T04:05:45.974Z,81.50
2022-11-06T04:06:45.938Z,67.70
2022-11-06T04:07:45.920Z,79.10
2022-11-06T04:08:45.927Z,79.00
2022-11-06T04:09:45.936Z,72.10
2022-11-06T04:10:45.929Z,93.10
2022-11-06T04:11:45.912Z,87.00
2022-11-06T04:12:45.877Z,72.30
2022-11-06T04:13:45.956Z,83.90
2022-11-06T04:14:45.869Z,69.20
2022-11-06T04:15:45.861Z,70.20
2022-11-06T04:16:45.875Z,81.80
2022-11-06T04:17:45.810Z,78.30
2022-11-06T04:18:45.812Z,86.30
2022-11-06T04:19:45.895Z,74.30
2022-11-06T04:20:45.827Z,73.60
2022-11-06T04:21:45.776Z,65.80
2022-11-06T04:22:45.810Z,67.80
2022-11-06T04:23:45.745Z,72.00
2022-11-06T04:24:45.919Z,61.80
2022-11-06T04:25:45.737Z,71.10
2022-11-06T04:26:45.728Z,81.50
2022-11-06T04:27:45.741Z,100.40
2022-11-06T04:28:45.745Z,100.70
2022-11-06T04:29:45.690Z,136.00
2022-11-06T04:30:45.670Z,90.80
2022-11-06T04:31:45.704Z,84.80
2022-11-06T04:32:45.669Z,78.50
2022-11-06T04:33:45.675Z,86.40
2022-11-06T04:34:45.688Z,66.20
2022-11-06T04:35:45.640Z,61.80
2022-11-06T04:36:45.625Z,79.00
2022-11-06T04:37:45.601Z,74.20
2022-11-06T04:38:45.604Z,243.50
2022-11-06T04:39:45.616Z,255.50
2022-11-06T04:40:45.640Z,272.80
2022-11-06T04:41:45.560Z,291.40
2022-11-06T04:42:45.942Z,356.50
2022-11-06T04:43:45.537Z,126.30
2022-11-06T04:44:45.544Z,233.60
2022-11-06T04:45:45.555Z,190.70
2022-11-06T04:46:45.560Z,132.00
2022-11-06T04:47:45.482Z,118.90
2022-11-06T04:48:45.486Z,157.50
2022-11-06T04:49:45.479Z,115.50
2022-11-06T04:50:45.484Z,89.10
2022-11-06T04:51:45.488Z,91.20
2022-11-06T04:52:45.502Z,106.10
2022-11-06T04:53:45.432Z,115.10
2022-11-06T04:54:45.443Z,179.20
2022-11-06T04:55:45.427Z,180.50
2022-11-06T04:56:46.570Z,113.70
2022-11-06T04:57:45.435Z,121.00
2022-11-06T04:58:45.370Z,222.80
2022-11-06T04:59:45.377Z,241.60
2022-11-06T05:00:45.421Z,189.40
2022-11-06T05:01:45.562Z,87.30
2022-11-06T05:02:45.358Z,180.60
2022-11-06T05:03:45.379Z,206.20
2022-11-06T05:04:45.307Z,206.00
2022-11-06T05:05:45.482Z,110.30
2022-11-06T05:06:45.295Z,102.20
2022-11-06T05:07:45.305Z,106.50
2022-11-06T05:08:45.258Z,64.40
2022-11-06T05:09:45.252Z,219.10
2022-11-06T05:10:45.252Z,260.00
2022-11-06T05:11:45.258Z,226.80
2022-11-06T05:12:45.234Z,231.70
2022-11-06T05:13:45.203Z,116.50
2022-11-06T05:14:45.252Z,141.10
2022-11-06T05:15:45.171Z,82.20
2022-11-06T05:16:45.163Z,99.50
2022-11-06T05:17:45.170Z,110.30
2022-11-06T05:18:45.169Z,74.00
2022-11-06T05:19:45.135Z,151.80
2022-11-06T05:20:45.110Z,201.50
2022-11-06T05:21:53.226Z,148.20
2022-11-06T05:22:45.108Z,219.70
2022-11-06T05:23:45.084Z,224.70
2022-11-06T05:24:45.171Z,143.60
2022-11-06T05:25:45.061Z,314.20
2022-11-06T05:26:45.055Z,84.80
2022-11-06T05:27:45.071Z,146.50
2022-11-06T05:28:45.051Z,165.60
2022-11-06T05:29:45.040Z,145.70
2022-11-06T05:30:45.010Z,173.30
2022-11-06T05:31:44.987Z,176.00
2022-11-06T05:32:44.993Z,130.50
2022-11-06T05:33:44.999Z,253.50
2022-11-06T05:34:44.964Z,113.80
2022-11-06T05:35:44.973Z,149.40
2022-11-06T05:36:44.968Z,231.50
2022-11-06T05:37:44.928Z,118.50
2022-11-06T05:38:44.915Z,187.00
2022-11-06T05:39:44.941Z,271.50
2022-11-06T05:40:44.937Z,196.10
2022-11-06T05:41:44.899Z,317.90
2022-11-06T05:42:44.866Z,412.20
2022-11-06T05:43:44.853Z,360.70
2022-11-06T05:44:44.855Z,207.30
2022-11-06T05:45:44.856Z,389.50
2022-11-06T05:46:49.647Z,122.10
2022-11-06T05:47:45.823Z,114.40
2022-11-06T05:48:44.802Z,239.70
2022-11-06T05:49:44.787Z,153.30
2022-11-06T05:50:44.801Z,153.90
2022-11-06T05:51:44.794Z,109.40
2022-11-06T05:52:44.775Z,141.70
2022-11-06T05:53:44.748Z,170.30
2022-11-06T05:54:44.745Z,425.50
2022-11-06T05:55:44.722Z,201.10
2022-11-06T05:56:44.732Z,130.80
2022-11-06T05:57:44.735Z,317.20
2022-11-06T05:58:44.735Z,334.30
2022-11-06T05:59:44.697Z,208.50
2022-11-06T06:00:44.681Z,74.40
2022-11-06T06:01:44.962Z,89.90
2022-11-06T06:02:44.804Z,191.70
2022-11-06T06:03:44.674Z,334.40
2022-11-06T06:04:44.647Z,230.00
2022-11-06T06:05:44.621Z,318.30
2022-11-06T06:06:44.676Z,216.30
2022-11-06T06:07:44.601Z,250.30
2022-11-06T06:08:44.597Z,166.00
2022-11-06T06:09:44.607Z,130.40
2022-11-06T06:10:44.586Z,148.40
2022-11-06T06:11:44.552Z,151.20
2022-11-06T06:12:44.552Z,87.90
2022-11-06T06:13:44.533Z,82.20
2022-11-06T06:14:47.891Z,126.40
2022-11-06T06:15:45.520Z,162.00
2022-11-06T06:16:44.524Z,110.40
2022-11-06T06:17:44.474Z,115.70
2022-11-06T06:18:44.477Z,157.30
2022-11-06T06:19:44.486Z,118.10
2022-11-06T06:20:44.457Z,196.60
2022-11-06T06:21:44.455Z,92.50
2022-11-06T06:22:44.430Z,178.80
2022-11-06T06:23:44.409Z,192.10
2022-11-06T06:24:44.514Z,154.40
2022-11-06T06:25:44.410Z,109.60
2022-11-06T06:26:44.397Z,172.00
2022-11-06T06:27:44.402Z,169.30
2022-11-06T06:28:44.377Z,148.70
2022-11-06T06:29:44.363Z,88.20
2022-11-06T06:30:44.350Z,131.80
2022-11-06T06:31:44.376Z,199.50
2022-11-06T06:32:44.343Z,75.20
2022-11-06T06:33:44.334Z,110.30
2022-11-06T06:34:44.303Z,72.10
2022-11-06T06:35:44.280Z,112.60
2022-11-06T06:36:44.280Z,92.20
2022-11-06T06:37:44.288Z,100.90
2022-11-06T06:38:44.282Z,97.00
2022-11-06T06:39:44.231Z,67.80
2022-11-06T06:40:44.301Z,86.70
2022-11-06T06:41:44.225Z,106.40
2022-11-06T06:42:44.222Z,66.50
2022-11-06T06:43:44.191Z,114.10
2022-11-06T06:44:44.255Z,112.60
2022-11-06T06:45:44.165Z,97.70
2022-11-06T06:46:44.187Z,92.80
2022-11-06T06:47:44.159Z,88.60
2022-11-06T06:48:44.163Z,66.00
2022-11-06T06:49:44.141Z,63.70
2022-11-06T06:50:44.145Z,101.80
2022-11-06T06:51:44.099Z,91.10
2022-11-06T06:52:44.097Z,70.80
2022-11-06T06:53:44.089Z,57.30
2022-11-06T06:54:44.084Z,84.40
2022-11-06T06:55:44.092Z,61.40
2022-11-06T06:56:44.045Z,74.50
2022-11-06T06:57:44.032Z,66.40
2022-11-06T06:58:44.043Z,57.70
2022-11-06T06:59:44.044Z,52.60
2022-11-06T07:00:44.175Z,60.90
2022-11-06T07:01:44.201Z,55.50
2022-11-06T07:02:43.987Z,52.10
2022-11-06T07:03:43.981Z,50.20
2022-11-06T07:04:43.985Z,44.40
2022-11-06T07:05:43.977Z,49.60
2022-11-06T07:06:43.947Z,47.40
2022-11-06T07:07:43.954Z,51.20
2022-11-06T07:08:43.927Z,54.00
2022-11-06T07:09:43.924Z,46.80
2022-11-06T07:10:43.895Z,49.10
2022-11-06T07:11:43.906Z,51.40
2022-11-06T07:12:43.884Z,44.10
2022-11-06T07:13:43.860Z,46.00
2022-11-06T07:14:43.844Z,41.40
2022-11-06T07:15:43.840Z,47.50
2022-11-06T07:16:43.860Z,40.40
2022-11-06T07:17:43.831Z,40.80
2022-11-06T07:18:43.855Z,38.50
2022-11-06T07:19:43.794Z,36.50
2022-11-06T07:20:43.789Z,37.70
2022-11-06T07:21:43.776Z,35.30
2022-11-06T07:22:43.768Z,38.40
2022-11-06T07:23:43.743Z,42.20
2022-11-06T07:24:43.790Z,41.80
2022-11-06T07:25:43.733Z,43.80
2022-11-06T07:26:43.709Z,39.60
2022-11-06T07:27:43.712Z,36.80
2022-11-06T07:28:43.706Z,36.10
2022-11-06T07:29:43.708Z,32.50
2022-11-06T07:30:43.674Z,36.40
2022-11-06T07:31:43.655Z,34.30
2022-11-06T07:32:43.673Z,38.00
2022-11-06T07:33:43.637Z,32.50
2022-11-06T07:34:43.639Z,33.40
2022-11-06T07:35:43.634Z,35.60
2022-11-06T07:36:43.603Z,35.10
2022-11-06T07:37:43.614Z,33.00
2022-11-06T07:38:43.594Z,34.20
2022-11-06T07:39:43.575Z,34.80
2022-11-06T07:40:43.587Z,35.30
2022-11-06T07:41:43.582Z,37.80
2022-11-06T07:42:43.941Z,39.10
2022-11-06T07:43:43.598Z,40.80
2022-11-06T07:44:43.528Z,40.60
2022-11-06T07:45:43.514Z,45.60
2022-11-06T07:46:43.516Z,45.70
2022-11-06T07:47:43.512Z,44.60
2022-11-06T07:48:43.494Z,42.20
2022-11-06T07:49:46.837Z,45.80
2022-11-06T07:50:44.485Z,45.50
2022-11-06T07:51:43.451Z,45.00
2022-11-06T07:52:43.421Z,50.50
2022-11-06T07:53:43.458Z,47.20
2022-11-06T07:54:43.397Z,43.30
2022-11-06T07:55:43.421Z,49.60
2022-11-06T07:56:43.398Z,49.30
2022-11-06T07:57:43.404Z,47.80
2022-11-06T07:58:43.397Z,49.10
2022-11-06T07:59:43.343Z,49.70
2022-11-06T08:00:43.448Z,46.80
2022-11-06T08:01:43.535Z,48.90
2022-11-06T08:02:43.456Z,57.00
2022-11-06T08:03:43.321Z,46.60
2022-11-06T08:04:43.310Z,50.40
2022-11-06T08:05:43.305Z,47.50
2022-11-06T08:06:43.293Z,51.80
2022-11-06T08:07:43.259Z,53.20
2022-11-06T08:08:43.252Z,58.70
2022-11-06T08:09:43.257Z,66.50
2022-11-06T08:10:43.283Z,56.10
2022-11-06T08:11:43.211Z,45.70
2022-11-06T08:12:43.210Z,53.80
2022-11-06T08:13:43.213Z,54.30
2022-11-06T08:14:43.201Z,53.30
2022-11-06T08:15:43.205Z,48.30
2022-11-06T08:16:43.169Z,41.70
2022-11-06T08:17:43.145Z,49.30
2022-11-06T08:18:43.160Z,48.50
2022-11-06T08:19:43.133Z,44.90
2022-11-06T08:20:43.146Z,46.60
2022-11-06T08:21:43.132Z,45.40
2022-11-06T08:22:43.112Z,47.30
2022-11-06T08:23:43.081Z,44.30
2022-11-06T08:24:43.067Z,52.40
2022-11-06T08:25:43.086Z,41.50
2022-11-06T08:26:43.070Z,50.70
2022-11-06T08:27:43.068Z,56.20
2022-11-06T08:28:43.034Z,46.50
2022-11-06T08:29:43.055Z,37.40
2022-11-06T08:30:43.029Z,39.60
2022-11-06T08:31:43.000Z,37.30
2022-11-06T08:32:43.014Z,49.00
2022-11-06T08:33:42.975Z,50.30
2022-11-06T08:34:42.955Z,38.30
2022-11-06T08:35:42.965Z,38.00
2022-11-06T08:36:46.882Z,35.00
2022-11-06T08:37:43.924Z,38.30
2022-11-06T08:38:42.978Z,45.20
2022-11-06T08:39:42.902Z,40.20
2022-11-06T08:40:42.891Z,47.00
2022-11-06T08:41:42.903Z,48.60
2022-11-06T08:42:42.878Z,49.10
2022-11-06T08:43:42.876Z,42.80
2022-11-06T08:44:42.860Z,40.30
2022-11-06T08:45:42.837Z,50.70
2022-11-06T08:46:45.400Z,50.10
2022-11-06T08:47:43.844Z,46.50
2022-11-06T08:48:42.804Z,46.80
2022-11-06T08:49:42.814Z,41.30
2022-11-06T08:50:42.779Z,42.90
2022-11-06T08:51:42.767Z,45.40
2022-11-06T08:52:42.788Z,40.20
2022-11-06T08:53:42.834Z,35.90
2022-11-06T08:54:42.747Z,38.70
2022-11-06T08:55:42.750Z,38.90
2022-11-06T08:56:42.709Z,37.30
2022-11-06T08:57:42.702Z,36.70
2022-11-06T08:58:42.706Z,33.90
2022-11-06T08:59:42.712Z,39.30
2022-11-06T09:00:42.808Z,38.00
2022-11-06T09:01:43.548Z,39.40
2022-11-06T09:02:42.666Z,37.00
2022-11-06T09:03:42.637Z,35.00
2022-11-06T09:04:42.625Z,34.00
2022-11-06T09:05:42.656Z,33.10
2022-11-06T09:06:42.623Z,38.10
2022-11-06T09:07:42.589Z,37.70
2022-11-06T09:08:42.591Z,32.00
2022-11-06T09:09:42.575Z,34.20
2022-11-06T09:10:42.568Z,32.20
2022-11-06T09:11:42.590Z,33.50
2022-11-06T09:12:42.559Z,32.90
2022-11-06T09:13:42.522Z,31.80
2022-11-06T09:14:42.511Z,32.30
2022-11-06T09:15:42.527Z,33.40
2022-11-06T09:16:42.514Z,33.00
2022-11-06T09:17:42.506Z,34.20
2022-11-06T09:18:42.467Z,38.00
2022-11-06T09:19:42.455Z,37.80
2022-11-06T09:20:42.515Z,35.10
2022-11-06T09:21:42.433Z,33.80
2022-11-06T09:22:42.447Z,34.70
2022-11-06T09:23:42.448Z,32.00
2022-11-06T09:25:02.512Z,32.50
2022-11-06T09:25:43.429Z,33.80
2022-11-06T09:26:42.388Z,33.90
2022-11-06T09:27:42.376Z,32.70
2022-11-06T09:28:42.368Z,33.40
2022-11-06T09:29:42.399Z,32.40
2022-11-06T09:30:42.332Z,30.20
2022-11-06T09:31:42.335Z,32.00
2022-11-06T09:32:42.318Z,31.40
2022-11-06T09:33:42.342Z,30.50
2022-11-06T09:34:42.324Z,31.10
2022-11-06T09:35:42.323Z,30.20
2022-11-06T09:36:42.281Z,31.20
2022-11-06T09:37:42.257Z,27.80
2022-11-06T09:38:42.289Z,27.90
2022-11-06T09:39:42.254Z,28.30
2022-11-06T09:40:42.240Z,28.00
2022-11-06T09:41:42.213Z,27.30
2022-11-06T09:42:42.199Z,27.20
2022-11-06T09:44:43.199Z,29.10
2022-11-06T09:45:42.211Z,27.90
2022-11-06T09:46:42.183Z,26.40
2022-11-06T09:47:42.143Z,23.60
2022-11-06T09:48:42.132Z,25.60
2022-11-06T09:49:42.140Z,25.40
2022-11-06T09:50:42.135Z,26.90
2022-11-06T09:51:42.117Z,26.10
2022-11-06T09:52:42.089Z,24.60
2022-11-06T09:53:42.085Z,23.00
2022-11-06T09:54:42.068Z,24.20
2022-11-06T09:55:42.089Z,24.00
2022-11-06T09:56:42.098Z,24.50
2022-11-06T09:57:42.052Z,23.50
2022-11-06T09:58:42.037Z,25.60
2022-11-06T09:59:42.009Z,24.60
2022-11-06T10:00:42.118Z,25.10
2022-11-06T10:01:42.131Z,24.70
2022-11-06T10:02:42.046Z,25.10
2022-11-06T10:03:42.002Z,24.30
2022-11-06T10:04:41.959Z,23.70
2022-11-06T10:05:41.942Z,22.40
2022-11-06T10:06:41.961Z,22.60
2022-11-06T10:07:41.954Z,23.30
2022-11-06T10:08:41.947Z,23.00
2022-11-06T10:09:41.899Z,23.10
2022-11-06T10:10:41.910Z,22.50
2022-11-06T10:11:41.876Z,22.60
2022-11-06T10:12:41.992Z,25.10
2022-11-06T10:13:41.876Z,23.80
2022-11-06T10:14:41.883Z,22.70
2022-11-06T10:15:41.837Z,22.00
2022-11-06T10:16:41.818Z,24.20
2022-11-06T10:17:41.821Z,23.00
2022-11-06T10:18:41.808Z,23.10
2022-11-06T10:19:41.802Z,23.20
2022-11-06T10:20:41.828Z,22.30
2022-11-06T10:21:41.764Z,23.30
2022-11-06T10:22:41.756Z,23.00
2022-11-06T10:23:41.756Z,23.00
2022-11-06T10:24:41.760Z,23.40
2022-11-06T10:25:41.741Z,23.60
2022-11-06T10:26:41.710Z,22.00
2022-11-06T10:27:41.701Z,22.00
2022-11-06T10:28:41.704Z,21.10
2022-11-06T10:29:41.729Z,20.60
2022-11-06T10:30:41.694Z,21.70
2022-11-06T10:31:41.669Z,21.80
2022-11-06T10:32:41.640Z,23.60
2022-11-06T10:33:41.640Z,20.40
2022-11-06T10:34:41.658Z,21.30
2022-11-06T10:35:41.639Z,22.10
2022-11-06T10:36:45.002Z,23.50
2022-11-06T10:37:42.586Z,21.40
2022-11-06T10:38:41.577Z,19.70
2022-11-06T10:39:41.569Z,21.30
2022-11-06T10:40:41.598Z,21.20
2022-11-06T10:41:41.548Z,20.80
2022-11-06T10:42:41.546Z,21.10
2022-11-06T10:43:41.520Z,22.30
2022-11-06T10:44:41.618Z,20.10
2022-11-06T10:45:41.534Z,20.40
2022-11-06T10:46:41.500Z,19.80
2022-11-06T10:47:41.515Z,19.50
2022-11-06T10:48:41.866Z,18.30
2022-11-06T10:49:41.460Z,20.10
2022-11-06T10:50:41.440Z,19.20
2022-11-06T10:51:41.438Z,20.00
2022-11-06T10:52:41.419Z,19.40
2022-11-06T10:53:41.568Z,20.30
2022-11-06T10:54:41.396Z,21.00
2022-11-06T10:55:41.385Z,20.50
2022-11-06T10:56:41.371Z,19.50
2022-11-06T10:57:41.377Z,19.30
2022-11-06T10:58:41.359Z,17.60
2022-11-06T10:59:41.367Z,17.00
2022-11-06T11:00:41.382Z,17.50
2022-11-06T11:01:41.467Z,17.90
2022-11-06T11:02:41.452Z,17.10
2022-11-06T11:03:41.313Z,16.70
2022-11-06T11:04:41.298Z,16.20
2022-11-06T11:05:41.311Z,18.00
2022-11-06T11:06:41.267Z,17.90
2022-11-06T11:07:41.256Z,17.10
2022-11-06T11:08:41.248Z,16.70
2022-11-06T11:09:41.231Z,16.80
2022-11-06T11:10:41.237Z,18.10
2022-11-06T11:11:41.229Z,17.70
2022-11-06T11:12:41.192Z,17.50
2022-11-06T11:13:41.182Z,18.00
2022-11-06T11:14:41.190Z,17.10
2022-11-06T11:15:41.218Z,17.30
2022-11-06T11:16:41.219Z,16.80
2022-11-06T11:17:41.142Z,16.50
2022-11-06T11:18:41.137Z,17.10
2022-11-06T11:19:41.117Z,16.20
2022-11-06T11:20:41.122Z,16.40
2022-11-06T11:21:41.131Z,16.00
2022-11-06T11:22:41.172Z,13.20
2022-11-06T11:23:41.070Z,14.10
2022-11-06T11:24:41.068Z,12.90
2022-11-06T11:25:41.084Z,12.20
2022-11-06T11:26:41.040Z,13.00
2022-11-06T11:27:41.045Z,12.60
2022-11-06T11:28:41.039Z,13.30
2022-11-06T11:29:41.003Z,12.10
2022-11-06T11:30:40.999Z,12.40
2022-11-06T11:31:41.003Z,12.40
2022-11-06T11:32:41.017Z,13.60
2022-11-06T11:33:40.990Z,13.30
2022-11-06T11:34:46.372Z,13.60
2022-11-06T11:35:41.945Z,12.30
2022-11-06T11:36:40.932Z,12.50
2022-11-06T11:37:40.943Z,12.40
2022-11-06T11:38:40.915Z,11.60
2022-11-06T11:39:40.913Z,12.40
2022-11-06T11:40:40.895Z,11.70
2022-11-06T11:41:40.871Z,11.80
2022-11-06T11:42:40.886Z,11.30
2022-11-06T11:43:40.878Z,11.60
2022-11-06T11:44:40.904Z,12.20
2022-11-06T11:45:40.823Z,11.60
2022-11-06T11:46:40.814Z,11.70
2022-11-06T11:47:40.827Z,11.30
2022-11-06T11:48:40.823Z,11.80
2022-11-06T11:49:40.788Z,11.90
2022-11-06T11:50:40.784Z,11.70
2022-11-06T11:51:40.758Z,12.00
2022-11-06T11:52:42.748Z,12.10
2022-11-06T11:53:40.765Z,12.00
2022-11-06T11:54:40.750Z,12.40
2022-11-06T11:55:40.726Z,12.30
2022-11-06T11:57:03.582Z,12.00
2022-11-06T11:57:41.689Z,11.50
2022-11-06T11:58:40.680Z,11.90
2022-11-06T11:59:40.707Z,12.20
2022-11-06T12:00:40.667Z,11.20
2022-11-06T12:01:40.757Z,12.30
2022-11-06T12:02:40.976Z,11.90
2022-11-06T12:03:40.626Z,11.90
2022-11-06T12:04:40.658Z,12.60
2022-11-06T12:05:40.632Z,11.40
2022-11-06T12:06:40.599Z,11.90
2022-11-06T12:07:45.031Z,11.50
2022-11-06T12:08:41.575Z,11.30
2022-11-06T12:09:40.555Z,10.70
2022-11-06T12:10:40.612Z,10.60
2022-11-06T12:11:40.562Z,10.30
2022-11-06T12:12:40.540Z,10.90
2022-11-06T12:13:40.545Z,10.60
2022-11-06T12:14:40.502Z,10.40
2022-11-06T12:15:40.488Z,10.80
2022-11-06T12:16:40.512Z,11.00
2022-11-06T12:17:40.469Z,10.60
2022-11-06T12:18:40.470Z,11.30
2022-11-06T12:19:40.469Z,11.20
2022-11-06T12:20:40.451Z,10.70
2022-11-06T12:21:40.420Z,11.40
2022-11-06T12:22:40.434Z,11.40
2022-11-06T12:23:40.444Z,11.80
2022-11-06T12:24:40.416Z,11.50
2022-11-06T12:25:40.376Z,11.70
2022-11-06T12:26:40.382Z,12.40
2022-11-06T12:27:40.354Z,12.30
2022-11-06T12:28:40.346Z,12.20
2022-11-06T12:29:40.359Z,12.10
2022-11-06T12:30:40.345Z,13.00
2022-11-06T12:31:40.324Z,12.60
2022-11-06T12:32:40.298Z,11.50
2022-11-06T12:34:04.920Z,11.40
2022-11-06T12:34:41.293Z,11.40
2022-11-06T12:35:40.285Z,11.90
2022-11-06T12:36:40.273Z,11.90
2022-11-06T12:37:40.241Z,12.30
2022-11-06T12:38:40.245Z,11.90
2022-11-06T12:39:40.240Z,11.90
2022-11-06T12:40:40.217Z,12.70
2022-11-06T12:41:40.212Z,12.70
2022-11-06T12:42:40.222Z,13.00
2022-11-06T12:43:40.186Z,12.50
2022-11-06T12:44:40.165Z,12.80
2022-11-06T12:45:40.151Z,12.40
2022-11-06T12:46:40.159Z,12.80
2022-11-06T12:47:40.129Z,12.10
2022-11-06T12:48:40.137Z,12.40
2022-11-06T12:49:40.115Z,12.00